METAR v bližini

 

LJLJ - Ljubljana/Brnik, Slovenia
Oddaljenost od postaje: Z 41km
Podatki zajeti: 23/09/2017 23:30
Pretežno oblačno
Pretežno oblačno
 Veter iz smeri spremenljiv
Veter: spremenljiv 2 km/h
Temperatura: 13°C
Rosišče: 12°C
Vlažnost: 94%
Tlak: 1020 hPa
Oblačnost: Pretežno oblačno
Vidljivost: 10 km
Podrobnosti o oblakih: Rahlo oblačno 1524 m
Pretežno oblačno 4267 m
2017/09/23 21:30 LJLJ 232130Z VRB01KT 9999 FEW050 BKN140 13/12 Q1020 NOSIG
LJMB - Maribor, Slovenia
Oddaljenost od postaje: SV 63km
Podatki zajeti: 23/09/2017 23:30
Oblačno
Oblačno
 Veter iz smeri spremenljiv
Veter: spremenljiv 2 km/h
Temperatura: 14°C
Rosišče: 11°C
Vlažnost: 82%
Tlak: 1020 hPa
Oblačnost: Oblačno
Vidljivost: 10 km
Podrobnosti o oblakih: Oblačno 1036 m
2017/09/23 21:30 LJMB 232130Z AUTO VRB01KT 9999 OVC034/// 14/11 Q1020
 
LJPZ - Portoroz, Slovenia
Oddaljenost od postaje: JZ 130km
Podatki zajeti: 23/09/2017 23:30
Pretežno oblačno
Pretežno oblačno
 Veter iz smeri VJV
Veter: VJV 11 km/h
Temperatura: 16°C
Rosišče: 15°C
Vlažnost: 94%
Tlak: 1019 hPa
Oblačnost: Pretežno oblačno
Vidljivost: 10 km
Podrobnosti o oblakih: Rahlo oblačno 671 m
Pretežno oblačno 1463 m
2017/09/23 21:30 LJPZ 232130Z AUTO 12006KT 9999 FEW022/// BKN048/// 16/15 Q1019
LJCE - Cerklje, Slovenia
Oddaljenost od postaje: VJV 49km
Podatki zajeti: 23/09/2017 23:30
Pretežno oblačno
Pretežno oblačno
 Veter iz smeri spremenljiv
Veter: spremenljiv 0 km/h
Temperatura: 14°C
Rosišče: 13°C
Vlažnost: 94%
Tlak: 1020 hPa
Oblačnost: Pretežno oblačno
Vidljivost: 10 km
Podrobnosti o oblakih: Pretežno oblačno 1494 m
Pretežno oblačno 3048 m
Pretežno oblačno 3658 m
2017/09/23 21:30 LJCE 232130Z AUTO /////KT 9999 BKN049/// BKN100/// BKN120/// 14/13 Q1020
 
LDZA - Zagreb/Pleso, Croatia
Oddaljenost od postaje: VJV 96km
Podatki zajeti: 23/09/2017 23:30
Rahlo oblačno
Rahlo oblačno
 Veter iz smeri SV
Veter: SV 7 km/h
Temperatura: 16°C
Rosišče: 13°C
Vlažnost: 83%
Tlak: 1020 hPa
Oblačnost: Rahlo oblačno
Vidljivost: 10 km
Podrobnosti o oblakih: Rahlo oblačno 1219 m
2017/09/23 21:30 LDZA 232130Z 04004KT 350V070 9999 FEW040 16/13 Q1020 NOSIG
LDRI - Rijeka/Omisalj, Croatia
Oddaljenost od postaje: JJZ 109km
Podatki zajeti: 23/09/2017 23:30
Pretežno oblačno
Pretežno oblačno
 Veter iz smeri VJV
Veter: VJV 9 km/h
Temperatura: 17°C
Rosišče: 14°C
Vlažnost: 83%
Tlak: 1020 hPa
Oblačnost: Pretežno oblačno
Vidljivost: 10 km
Podrobnosti o oblakih: Rahlo oblačno 1311 m
Delno oblačno 1524 m
Pretežno oblačno 1798 m
2017/09/23 21:30 LDRI 232130Z 11005KT 9999 FEW043 SCT050 BKN059 17/14 Q1020
 
LDPL - Pula, Croatia
Oddaljenost od postaje: JJZ 164km
Podatki zajeti: 23/09/2017 23:30
Rahlo oblačno
Rahlo oblačno
 Veter iz smeri SV
Veter: SV 7 km/h
Temperatura: 16°C
Rosišče: 14°C
Vlažnost: 88%
Tlak: 1020 hPa
Oblačnost: Rahlo oblačno
Vidljivost: 10 km
Podrobnosti o oblakih: Rahlo oblačno 610 m
2017/09/23 21:30 LDPL 232130Z 05004KT 9999 FEW020 16/14 Q1020 NOSIG
LOWK - Klagenfurt(Civ/M, Austria
Oddaljenost od postaje: SZ 76km
Podatki zajeti: 23/09/2017 23:20
Delno oblačno
Delno oblačno
 Veter iz smeri SZ
Veter: SZ 9 km/h
Temperatura: 12°C
Rosišče: 11°C
Vlažnost: 94%
Tlak: 1020 hPa
Oblačnost: Delno oblačno
Vidljivost: 10 km
Podrobnosti o oblakih: Delno oblačno 1646 m
Delno oblačno 4572 m
2017/09/23 21:20 LOWK 232120Z 31005KT 9999 SCT054 SCT150 12/11 Q1020 NOSIG
 
LOWG - Graz (mil/Civ), Austria
Oddaljenost od postaje: SSV 100km
Podatki zajeti: 23/09/2017 23:20
Pretežno oblačno
Pretežno oblačno
 Veter iz smeri spremenljiv
Veter: spremenljiv 2 km/h
Temperatura: 13°C
Rosišče: 10°C
Vlažnost: 82%
Tlak: 1021 hPa
Oblačnost: Pretežno oblačno
Vidljivost: 10 km
Podrobnosti o oblakih: Pretežno oblačno 914 m
2017/09/23 21:20 LOWG 232120Z AUTO VRB01KT 9999 BKN030 13/10 Q1021 NOSIG
LOWZ - Zell Am See, Austria
Oddaljenost od postaje: SZ 211km
Podatki zajeti: 31/12/2016 17:00
Ni posodobljen
Jasno
Jasno
 Veter iz smeri spremenljiv
Veter: spremenljiv 4 km/h
Temperatura: -4°C
Rosišče: -7°C
Vlažnost: 80%
Tlak: 1031 hPa
Oblačnost: Jasno
2016/12/31 16:00 LOWZ 311600Z VRB02KT 50KM SKC M04/M07 Q1031
 
LOAN - Wr.neustadt East, Austria
Oddaljenost od postaje: SSV 212km
Podatki zajeti: 23/09/2017 19:00
Ni posodobljen
Pretežno oblačno
Pretežno oblačno
 Veter iz smeri S
Veter: S 7 km/h
Oblačnost: Pretežno oblačno
Podrobnosti o oblakih: Rahlo oblačno 1524 m
Delno oblačno 2134 m
Pretežno oblačno 4572 m
2017/09/23 17:00 LOAN 231700Z 35004KT 20KM FEW050CU SCT070SC BKN150AC
LIPQ - Ronchi Legionari, Italy
Oddaljenost od postaje: JZ 35km
Podatki zajeti: 23/09/2017 23:20
Pretežno oblačno
Pretežno oblačno
 Veter iz smeri VJV
Veter: VJV 6 km/h
Temperatura: 16°C
Rosišče: 14°C
Vlažnost: 88%
Tlak: 1019 hPa
Oblačnost: Pretežno oblačno
Vidljivost: 10 km
Podrobnosti o oblakih: Pretežno oblačno 1829 m
2017/09/23 21:20 LIPQ 232120Z 11003KT 9999 BKN060 16/14 Q1019
 
LIVT - Trieste, Italy
Oddaljenost od postaje: ZJZ 109km
Podatki zajeti: 23/09/2017 22:55
Delno oblačno
Delno oblačno
 Veter iz smeri VSV
Veter: VSV 2 km/h
Temperatura: 18°C
Rosišče: 14°C
Vlažnost: 78%
Tlak: 1019 hPa
Oblačnost: Delno oblačno
Vidljivost: 10 km
Podrobnosti o oblakih: Delno oblačno 1067 m
2017/09/23 20:55 LIVT 232055Z 07001KT 9999 SCT035 18/14 Q1019 RMK BKN SCT080 QUK / QUL / VIS MAR 20 KM VIS MIN 9999
LIVO - Tarvisio, Italy
Oddaljenost od postaje: SSZ 49km
Podatki zajeti: 23/09/2017 19:55
Ni posodobljen
Pretežno oblačno
Pretežno oblačno
 Veter iz smeri ZSZ
Veter: ZSZ 11 km/h
Temperatura: 14°C
Rosišče: 13°C
Vlažnost: 94%
Tlak: 1019 hPa
Oblačnost: Pretežno oblačno
Vidljivost: 10 km
Podrobnosti o oblakih: Pretežno oblačno 975 m
2017/09/23 17:55 LIVO 231755Z 30006KT 9999 BKN032 14/13 Q1019 RMK BKN VIS MIN 9999
 
LIPZ - Venezia/Tessera, Italy
Oddaljenost od postaje: ZJZ 217km
Podatki zajeti: 23/09/2017 23:20
Pretežno oblačno
Pretežno oblačno
 Veter iz smeri spremenljiv
Veter: spremenljiv 2 km/h
Temperatura: 17°C
Rosišče: 16°C
Vlažnost: 94%
Tlak: 1019 hPa
Oblačnost: Pretežno oblačno
Vidljivost: 10 km
Podrobnosti o oblakih: Pretežno oblačno 1676 m
2017/09/23 21:20 LIPZ 232120Z VRB01KT 9999 BKN055 17/16 Q1019 NOSIG
LHSM - Balaton, Hungary
Oddaljenost od postaje: VSV 177km
Podatki zajeti: 23/09/2017 21:45
Ni posodobljen
Pretežno oblačno
Pretežno oblačno
 Veter iz smeri SSV
Veter: SSV 4 km/h
Temperatura: 14°C
Rosišče: 11°C
Vlažnost: 82%
Tlak: 1021 hPa
Oblačnost: Pretežno oblačno
Vidljivost: 6 km
Podrobnosti o oblakih: Pretežno oblačno 2530 m
2017/09/23 19:45 LHSM 231945Z 02002KT 6000 BKN083 14/11 Q1021